Hlavní strana
METAR-TAF:

METAR-TAF

Letiště :

Skellefteå, Švédsko

zeměpisná šířka: 64-38N, zeměpisná délka: 021-05E, výška: 49 m

Aktuální stav počasí

Zpráva byla vytvořena před 31 minutami, v 12:50 UTC
Západní vítr 10 kt
Teplota 11°C
Vlhkost vzduchu 58%
Tlak 1014 hPa
Viditelnost 10 km a více
Žádná oblačnost pod 1500 m, nevyskytují se cumulonimby.

METAR: ESNS 191250Z 28010KT CAVOK 11/03 Q1014

Čas: 15:21 (13:21 UTC)

Předpověď počasí

Zpráva byla vytvořena před 1 hodinou a 51 minutami, v 11:30 UTC
Předpověď platná od 19 v 12 UTC do 19 v 21 UTC
Západoseverozápadní vítr 14 kt
Viditelnost 10 km a více
Žádná oblačnost pod 1500 m, nevyskytují se cumulonimby.
Změna
od 19 v 19 UTC do 19 v 21 UTC
Západoseverozápadní vítr 4 kt

TAF: ESNS 191130Z 1912/1921 29014KT CAVOK BECMG 1919/1921 29004KT

Stav a předpovědi počasí z více než 4 000 letišť (zprávy METAR a TAF).

Červené a žluté tečky na mapě představují dostupné meteorologické stanice.

Když kurzor umístíte na tečku, zobrazí se název stanice.

Pak kliknutím zobrazíte stav a předpověď počasí.

Chcete-li změnit mapu, kliknutím na zelené tlačítko se znaménkem +mapu přiblížíte, kliknutím na zelené tlačítko se znaménkem – mapu oddálíte a kliknutím na zelené šipky přejdete na sousední mapy.


METAR-TAF: